createdAt,value
2022-11-12T00:01:14.802Z,29.73
2022-11-12T00:03:42.848Z,29.73
2022-11-12T00:06:11.066Z,40.20
2022-11-12T00:08:39.452Z,43.67
2022-11-12T00:11:07.652Z,50.15
2022-11-12T00:13:35.690Z,45.90
2022-11-12T00:16:06.585Z,47.78
2022-11-12T00:18:34.608Z,45.42
2022-11-12T00:21:02.760Z,41.70
2022-11-12T00:23:31.184Z,41.05
2022-11-12T00:26:00.770Z,42.53
2022-11-12T00:28:32.230Z,43.78
2022-11-12T00:31:10.455Z,38.53
2022-11-12T00:33:41.642Z,43.40
2022-11-12T00:38:38.659Z,35.17
2022-11-12T00:41:06.819Z,40.85
2022-11-12T00:43:35.347Z,46.20
2022-11-12T00:46:03.384Z,44.78
2022-11-12T00:48:32.869Z,43.88
2022-11-12T00:51:02.633Z,47.38
2022-11-12T00:53:30.880Z,44.50
2022-11-12T00:56:03.116Z,43.45
2022-11-12T00:58:32.069Z,51.60
2022-11-12T01:01:05.612Z,45.92
2022-11-12T01:03:35.545Z,50.60
2022-11-12T01:06:04.758Z,47.25
2022-11-12T01:08:33.105Z,52.90
2022-11-12T01:11:07.610Z,54.30
2022-11-12T01:13:38.788Z,49.92
2022-11-12T01:16:11.250Z,49.60
2022-11-12T01:18:40.997Z,47.03
2022-11-12T01:21:09.814Z,55.47
2022-11-12T01:23:40.249Z,50.25
2022-11-12T01:26:09.765Z,45.60
2022-11-12T01:28:38.861Z,42.25
2022-11-12T01:31:14.912Z,48.53
2022-11-12T01:33:45.666Z,48.17
2022-11-12T01:36:14.700Z,48.92
2022-11-12T01:38:44.453Z,47.00
2022-11-12T01:41:15.005Z,52.42
2022-11-12T01:43:43.692Z,47.35
2022-11-12T01:46:16.372Z,47.85
2022-11-12T01:48:49.695Z,46.00
2022-11-12T01:51:18.245Z,53.97
2022-11-12T01:53:49.090Z,50.85
2022-11-12T01:56:17.814Z,65.80
2022-11-12T01:58:48.205Z,60.60
2022-11-12T02:01:17.106Z,53.40
2022-11-12T02:03:45.401Z,54.97
2022-11-12T02:06:16.132Z,62.40
2022-11-12T02:08:45.578Z,67.05
2022-11-12T02:11:15.567Z,55.75
2022-11-12T02:13:58.454Z,46.47
2022-11-12T02:16:29.666Z,58.33
2022-11-12T02:18:57.991Z,55.92
2022-11-12T02:21:28.320Z,51.17
2022-11-12T02:24:04.357Z,47.78
2022-11-12T02:26:35.793Z,44.00
2022-11-12T02:29:05.192Z,37.97
2022-11-12T02:31:33.395Z,40.17
2022-11-12T02:34:02.341Z,33.70
2022-11-12T02:36:32.395Z,32.10
2022-11-12T02:39:00.670Z,29.95
2022-11-12T02:41:29.272Z,38.58
2022-11-12T02:43:57.637Z,37.25
2022-11-12T02:46:26.432Z,47.88
2022-11-12T02:48:55.139Z,42.13
2022-11-12T02:51:23.707Z,40.65
2022-11-12T02:53:53.790Z,41.08
2022-11-12T02:56:22.090Z,34.40
2022-11-12T02:58:50.499Z,32.35
2022-11-12T03:01:18.624Z,32.95
2022-11-12T03:03:46.760Z,36.90
2022-11-12T03:06:15.381Z,34.22
2022-11-12T03:08:43.508Z,36.88
2022-11-12T03:11:14.907Z,32.53
2022-11-12T03:13:43.622Z,29.33
2022-11-12T03:16:11.839Z,28.63
2022-11-12T03:18:39.987Z,29.27
2022-11-12T03:21:08.500Z,28.75
2022-11-12T03:23:36.642Z,30.40
2022-11-12T03:26:05.563Z,33.33
2022-11-12T03:28:35.227Z,38.35
2022-11-12T03:31:03.609Z,36.40
2022-11-12T03:33:31.879Z,30.45
2022-11-12T03:36:00.014Z,32.90
2022-11-12T03:38:28.510Z,38.33
2022-11-12T03:40:56.836Z,36.47
2022-11-12T03:43:25.207Z,35.75
2022-11-12T03:45:54.782Z,38.30
2022-11-12T03:48:22.911Z,34.40
2022-11-12T03:50:51.389Z,34.85
2022-11-12T03:53:19.570Z,35.70
2022-11-12T03:55:48.017Z,33.10
2022-11-12T03:58:16.141Z,36.15
2022-11-12T04:00:44.409Z,43.22
2022-11-12T04:03:14.111Z,42.85
2022-11-12T04:05:59.961Z,40.22
2022-11-12T04:08:37.100Z,46.55
2022-11-12T04:11:08.347Z,39.50
2022-11-12T04:13:38.748Z,34.83
2022-11-12T04:16:27.188Z,37.78
2022-11-12T04:19:16.158Z,37.10
2022-11-12T04:21:54.987Z,30.00
2022-11-12T04:24:43.879Z,27.95
2022-11-12T04:27:14.731Z,25.20
2022-11-12T04:30:01.101Z,27.88
2022-11-12T04:32:29.657Z,27.95
2022-11-12T04:35:00.073Z,28.73
2022-11-12T04:37:29.594Z,24.77
2022-11-12T04:40:18.976Z,26.48
2022-11-12T04:43:06.773Z,25.55
2022-11-12T04:45:42.161Z,22.13
2022-11-12T04:48:10.659Z,21.38
2022-11-12T04:50:40.331Z,18.48
2022-11-12T04:53:08.453Z,18.60
2022-11-12T04:55:36.829Z,18.30
2022-11-12T04:58:05.467Z,21.48
2022-11-12T05:00:33.570Z,26.83
2022-11-12T05:03:02.008Z,22.67
2022-11-12T05:05:33.896Z,21.60
2022-11-12T05:08:04.414Z,22.20
2022-11-12T05:10:32.862Z,25.60
2022-11-12T05:13:01.071Z,22.00
2022-11-12T05:15:29.577Z,22.17
2022-11-12T05:17:57.886Z,18.35
2022-11-12T05:20:26.237Z,18.42
2022-11-12T05:23:06.242Z,18.88
2022-11-12T05:25:37.416Z,20.67
2022-11-12T05:28:07.271Z,18.08
2022-11-12T05:30:36.886Z,21.75
2022-11-12T05:33:05.441Z,25.38
2022-11-12T05:35:33.651Z,22.42
2022-11-12T05:38:01.645Z,29.60
2022-11-12T05:40:30.028Z,25.45
2022-11-12T05:42:59.484Z,22.35
2022-11-12T05:45:27.752Z,22.73
2022-11-12T05:47:56.294Z,25.35
2022-11-12T05:50:24.887Z,27.58
2022-11-12T05:52:53.349Z,26.40
2022-11-12T05:55:21.417Z,29.95
2022-11-12T05:57:49.519Z,29.67
2022-11-12T06:00:19.999Z,26.42
2022-11-12T06:02:48.149Z,24.48
2022-11-12T06:05:16.353Z,33.38
2022-11-12T06:07:44.678Z,34.88
2022-11-12T06:10:16.114Z,34.00
2022-11-12T06:12:48.783Z,30.98
2022-11-12T06:15:16.973Z,31.70
2022-11-12T06:17:46.773Z,32.28
2022-11-12T06:20:15.026Z,29.75
2022-11-12T06:22:43.354Z,28.55
2022-11-12T06:25:11.419Z,25.27
2022-11-12T06:27:39.507Z,32.80
2022-11-12T06:30:08.906Z,33.55
2022-11-12T06:32:37.262Z,32.47
2022-11-12T06:35:08.238Z,29.83
2022-11-12T06:37:36.506Z,32.63
2022-11-12T06:40:04.993Z,37.83
2022-11-12T06:42:33.405Z,35.95
2022-11-12T06:45:01.686Z,42.78
2022-11-12T06:47:29.840Z,38.13
2022-11-12T06:49:58.186Z,46.47
2022-11-12T06:52:30.633Z,45.45
2022-11-12T06:54:58.914Z,38.00
2022-11-12T06:57:27.022Z,39.28
2022-11-12T06:59:55.097Z,39.85
2022-11-12T07:02:23.458Z,35.83
2022-11-12T07:04:51.551Z,34.97
2022-11-12T07:07:19.650Z,35.05
2022-11-12T07:09:49.332Z,32.50
2022-11-12T07:12:17.348Z,28.38
2022-11-12T07:14:46.723Z,28.25
2022-11-12T07:17:14.986Z,28.15
2022-11-12T07:19:43.057Z,28.25
2022-11-12T07:22:11.371Z,24.80
2022-11-12T07:24:39.456Z,26.15
2022-11-12T07:27:09.071Z,25.75
2022-11-12T07:29:47.376Z,24.92
2022-11-12T07:32:16.609Z,25.27
2022-11-12T07:34:44.759Z,27.63
2022-11-12T07:37:13.210Z,34.75
2022-11-12T07:39:41.331Z,35.05
2022-11-12T07:42:11.142Z,35.47
2022-11-12T07:44:39.195Z,37.97
2022-11-12T07:47:07.305Z,44.78
2022-11-12T07:49:35.676Z,46.55
2022-11-12T07:52:03.771Z,49.40
2022-11-12T07:54:32.186Z,43.60
2022-11-12T07:57:01.498Z,37.38
2022-11-12T07:59:33.802Z,39.83
2022-11-12T08:02:02.061Z,25.98
2022-11-12T08:04:30.578Z,36.47
2022-11-12T08:06:58.709Z,29.17
2022-11-12T08:09:26.812Z,24.83
2022-11-12T08:11:55.316Z,22.65
2022-11-12T08:14:24.814Z,25.20
2022-11-12T08:16:54.413Z,22.60
2022-11-12T08:19:22.422Z,17.98
2022-11-12T08:21:50.778Z,17.80
2022-11-12T08:24:18.714Z,21.23
2022-11-12T08:26:47.090Z,21.02
2022-11-12T08:29:15.068Z,22.08
2022-11-12T08:31:43.388Z,23.05
2022-11-12T08:34:20.088Z,19.15
2022-11-12T08:36:51.145Z,20.13
2022-11-12T08:39:19.288Z,19.45
2022-11-12T08:41:47.617Z,18.75
2022-11-12T08:44:15.697Z,18.63
2022-11-12T08:46:44.081Z,20.42
2022-11-12T08:49:13.414Z,18.48
2022-11-12T08:51:41.721Z,17.83
2022-11-12T08:54:09.782Z,18.90
2022-11-12T08:56:38.296Z,19.25
2022-11-12T08:59:07.600Z,19.55
2022-11-12T09:01:36.240Z,17.20
2022-11-12T09:04:04.636Z,18.92
2022-11-12T09:06:34.531Z,16.40
2022-11-12T09:09:02.698Z,16.17
2022-11-12T09:11:31.060Z,16.38
2022-11-12T09:13:59.246Z,18.65
2022-11-12T09:16:27.733Z,16.58
2022-11-12T09:18:55.762Z,16.80
2022-11-12T09:21:24.975Z,16.02
2022-11-12T09:23:54.436Z,15.30
2022-11-12T09:26:22.735Z,16.63
2022-11-12T09:28:52.446Z,15.85
2022-11-12T09:31:21.208Z,16.88
2022-11-12T09:33:49.287Z,16.38
2022-11-12T09:36:18.272Z,18.05
2022-11-12T09:38:46.369Z,17.67
2022-11-12T09:41:24.157Z,13.93
2022-11-12T09:43:53.155Z,16.88
2022-11-12T09:46:35.365Z,14.40
2022-11-12T09:49:08.028Z,15.20
2022-11-12T09:51:39.176Z,16.65
2022-11-12T09:54:15.039Z,18.27
2022-11-12T09:56:45.002Z,14.55
2022-11-12T09:59:13.833Z,12.07
2022-11-12T10:01:49.404Z,12.70
2022-11-12T10:04:55.041Z,12.38
2022-11-12T10:07:33.388Z,9.18
2022-11-12T10:10:04.991Z,10.15
2022-11-12T10:12:44.648Z,9.15
2022-11-12T10:15:53.684Z,10.50
2022-11-12T10:18:31.205Z,10.93
2022-11-12T10:21:03.232Z,9.30
2022-11-12T10:23:38.383Z,10.02
2022-11-12T10:26:12.474Z,11.68
2022-11-12T10:28:46.880Z,12.30
2022-11-12T10:31:16.761Z,10.57
2022-11-12T10:33:45.298Z,10.40
2022-11-12T10:36:22.109Z,11.02
2022-11-12T10:38:53.621Z,9.57
2022-11-12T10:41:26.955Z,9.95
2022-11-12T10:43:59.150Z,8.55
2022-11-12T10:46:29.055Z,11.40
2022-11-12T10:49:00.245Z,11.15
2022-11-12T10:51:31.453Z,9.55
2022-11-12T10:53:59.985Z,12.13
2022-11-12T10:56:30.222Z,10.65
2022-11-12T10:59:16.532Z,8.52
2022-11-12T11:01:46.258Z,9.82
2022-11-12T11:07:06.608Z,11.30
2022-11-12T11:09:35.558Z,12.38
2022-11-12T11:12:03.735Z,11.13
2022-11-12T11:14:35.128Z,10.63
2022-11-12T11:17:08.718Z,11.23
2022-11-12T11:19:39.286Z,10.88
2022-11-12T11:22:25.063Z,14.98
2022-11-12T11:25:02.662Z,12.68
2022-11-12T11:27:34.219Z,11.43
2022-11-12T11:30:10.352Z,12.45
2022-11-12T11:33:05.383Z,11.00
2022-11-12T11:35:46.864Z,14.07
2022-11-12T11:38:29.689Z,11.18
2022-11-12T11:41:08.120Z,9.98
2022-11-12T11:43:48.232Z,11.73
2022-11-12T11:46:29.233Z,11.53
2022-11-12T11:49:09.076Z,12.40
2022-11-12T11:51:48.137Z,13.50
2022-11-12T11:54:33.159Z,14.63
2022-11-12T11:57:04.072Z,11.23
2022-11-12T11:59:42.129Z,11.20
2022-11-12T12:02:44.214Z,14.40
2022-11-12T12:05:23.975Z,11.60
2022-11-12T12:07:57.353Z,16.30
2022-11-12T12:10:46.228Z,31.08
2022-11-12T12:13:20.526Z,21.40
2022-11-12T12:15:59.572Z,17.55
2022-11-12T12:18:35.585Z,13.27
2022-11-12T12:21:07.800Z,15.23
2022-11-12T12:23:41.109Z,14.82
2022-11-12T12:26:23.380Z,14.20
2022-11-12T12:28:55.186Z,14.52
2022-11-12T12:31:26.547Z,14.02
2022-11-12T12:33:59.484Z,15.13
2022-11-12T12:36:33.004Z,11.57
2022-11-12T12:39:10.147Z,12.65
2022-11-12T12:41:44.450Z,12.85
2022-11-12T12:44:13.056Z,12.25
2022-11-12T12:46:44.565Z,13.13
2022-11-12T12:49:16.969Z,11.15
2022-11-12T12:51:45.523Z,13.02
2022-11-12T12:55:01.742Z,12.13
2022-11-12T12:57:32.120Z,16.20
2022-11-12T13:00:29.773Z,10.77
2022-11-12T13:02:58.399Z,10.02
2022-11-12T13:05:30.830Z,10.90
2022-11-12T13:08:02.246Z,18.02
2022-11-12T13:10:48.126Z,13.23
2022-11-12T13:13:32.723Z,12.15
2022-11-12T13:16:02.406Z,10.30
2022-11-12T13:19:02.113Z,10.93
2022-11-12T13:21:31.841Z,12.88
2022-11-12T13:24:08.899Z,10.73
2022-11-12T13:26:57.469Z,9.75
2022-11-12T13:29:41.283Z,7.93
2022-11-12T13:32:32.414Z,11.82
2022-11-12T13:35:21.687Z,12.18
2022-11-12T13:37:53.237Z,9.40
2022-11-12T13:40:32.090Z,10.75
2022-11-12T13:43:06.326Z,8.15
2022-11-12T13:45:41.250Z,7.82
2022-11-12T13:48:10.432Z,11.52
2022-11-12T13:50:40.604Z,13.25
2022-11-12T13:53:12.501Z,12.85
2022-11-12T13:55:49.453Z,19.35
2022-11-12T13:58:21.160Z,18.58
2022-11-12T14:00:54.122Z,18.10
2022-11-12T14:03:22.540Z,12.63
2022-11-12T14:05:51.482Z,13.82
2022-11-12T14:08:57.238Z,17.45
2022-11-12T14:11:50.108Z,12.73
2022-11-12T14:14:26.959Z,11.25
2022-11-12T14:17:03.869Z,8.50
2022-11-12T14:19:51.527Z,10.60
2022-11-12T14:22:21.539Z,12.07
2022-11-12T14:24:55.830Z,12.20
2022-11-12T14:27:25.832Z,17.92
2022-11-12T14:30:07.261Z,16.65
2022-11-12T14:35:33.158Z,13.70
2022-11-12T14:38:07.122Z,16.63
2022-11-12T14:40:39.297Z,14.20
2022-11-12T14:43:07.965Z,15.70
2022-11-12T14:45:36.065Z,16.42
2022-11-12T14:48:04.604Z,25.58
2022-11-12T14:50:40.215Z,25.73
2022-11-12T14:53:13.594Z,30.67
2022-11-12T14:55:45.550Z,29.45
2022-11-12T14:58:14.933Z,26.77
2022-11-12T15:00:44.913Z,37.15
2022-11-12T15:03:16.413Z,39.42
2022-11-12T15:05:55.751Z,48.03
2022-11-12T15:08:32.203Z,46.65
2022-11-12T15:13:56.434Z,45.85
2022-11-12T15:16:27.082Z,46.03
2022-11-12T15:19:30.397Z,37.05
2022-11-12T15:22:01.318Z,45.00
2022-11-12T15:24:32.183Z,42.47
2022-11-12T15:27:02.017Z,42.72
2022-11-12T15:29:33.313Z,33.05
2022-11-12T15:34:34.644Z,62.38
2022-11-12T15:37:06.465Z,30.20
2022-11-12T15:39:40.562Z,34.00
2022-11-12T15:42:16.657Z,30.23
2022-11-12T15:44:47.039Z,27.85
2022-11-12T15:47:21.849Z,27.80
2022-11-12T15:49:51.220Z,27.65
2022-11-12T15:52:19.899Z,26.30
2022-11-12T15:54:48.089Z,26.55
2022-11-12T15:57:18.735Z,26.90
2022-11-12T15:59:50.543Z,25.05
2022-11-12T16:02:18.905Z,24.10
2022-11-12T16:04:46.976Z,27.45
2022-11-12T16:07:15.060Z,28.05
2022-11-12T16:09:43.501Z,26.63
2022-11-12T16:12:12.363Z,22.05
2022-11-12T16:14:40.966Z,22.50
2022-11-12T16:17:14.992Z,26.63
2022-11-12T16:19:43.486Z,24.05
2022-11-12T16:22:13.638Z,27.70
2022-11-12T16:24:42.900Z,35.53
2022-11-12T16:27:13.116Z,38.50
2022-11-12T16:29:41.828Z,56.42
2022-11-12T16:32:15.415Z,59.95
2022-11-12T16:34:43.796Z,54.80
2022-11-12T16:37:13.382Z,51.58
2022-11-12T16:39:41.941Z,57.05
2022-11-12T16:42:11.303Z,56.08
2022-11-12T16:44:39.392Z,53.92
2022-11-12T16:47:07.723Z,51.20
2022-11-12T16:49:38.821Z,51.60
2022-11-12T16:52:07.610Z,42.58
2022-11-12T16:54:35.664Z,43.90
2022-11-12T16:57:04.476Z,37.45
2022-11-12T16:59:32.619Z,37.58
2022-11-12T17:02:00.697Z,44.92
2022-11-12T17:04:29.092Z,47.55
2022-11-12T17:06:58.710Z,40.72
2022-11-12T17:09:27.604Z,37.95
2022-11-12T17:11:56.158Z,35.85
2022-11-12T17:14:28.404Z,37.25
2022-11-12T17:16:57.036Z,36.30
2022-11-12T17:19:25.141Z,42.70
2022-11-12T17:21:53.433Z,52.20
2022-11-12T17:24:24.971Z,48.83
2022-11-12T17:26:52.981Z,49.38
2022-11-12T17:29:21.146Z,51.22
2022-11-12T17:31:50.237Z,51.90
2022-11-12T17:34:18.562Z,74.25
2022-11-12T17:36:46.902Z,83.20
2022-11-12T17:39:15.291Z,71.35
2022-11-12T17:41:44.875Z,66.15
2022-11-12T17:44:16.760Z,63.80
2022-11-12T17:46:45.065Z,57.95
2022-11-12T17:49:14.122Z,59.20
2022-11-12T17:51:42.406Z,55.17
2022-11-12T17:54:10.486Z,53.60
2022-11-12T17:56:38.958Z,61.88
2022-11-12T17:59:08.502Z,59.75
2022-11-12T18:01:37.149Z,62.22
2022-11-12T18:04:05.535Z,58.40
2022-11-12T18:06:35.301Z,64.60
2022-11-12T18:09:05.751Z,54.22
2022-11-12T18:11:42.223Z,57.20
2022-11-12T18:14:14.348Z,60.47
2022-11-12T18:16:42.868Z,58.58
2022-11-12T18:19:12.679Z,51.83
2022-11-12T18:21:41.543Z,53.30
2022-11-12T18:24:15.052Z,52.47
2022-11-12T18:26:44.514Z,53.33
2022-11-12T18:29:14.281Z,52.50
2022-11-12T18:31:43.627Z,54.75
2022-11-12T18:34:12.295Z,64.90
2022-11-12T18:36:40.674Z,59.85
2022-11-12T18:39:08.911Z,66.65
2022-11-12T18:41:37.044Z,68.38
2022-11-12T18:44:05.860Z,75.75
2022-11-12T18:46:35.580Z,66.28
2022-11-12T18:49:04.078Z,68.53
2022-11-12T18:51:32.240Z,67.35
2022-11-12T18:54:00.919Z,74.32
2022-11-12T18:56:29.344Z,67.53
2022-11-12T18:58:57.446Z,67.50
2022-11-12T19:01:26.400Z,60.53
2022-11-12T19:03:57.599Z,74.63
2022-11-12T19:06:27.161Z,75.72
2022-11-12T19:09:00.046Z,75.65
2022-11-12T19:11:28.446Z,78.88
2022-11-12T19:13:57.239Z,84.13
2022-11-12T19:16:25.335Z,85.78
2022-11-12T19:18:53.734Z,81.22
2022-11-12T19:21:25.297Z,88.53
2022-11-12T19:23:54.995Z,79.18
2022-11-12T19:26:24.305Z,81.38
2022-11-12T19:28:52.355Z,132.65
2022-11-12T19:31:22.368Z,90.43
2022-11-12T19:33:50.828Z,79.22
2022-11-12T19:36:22.163Z,74.82
2022-11-12T19:38:56.859Z,77.82
2022-11-12T19:41:25.718Z,82.35
2022-11-12T19:43:54.370Z,84.28
2022-11-12T19:46:22.589Z,84.90
2022-11-12T19:48:51.223Z,80.05
2022-11-12T19:51:19.583Z,80.32
2022-11-12T19:53:47.691Z,85.50
2022-11-12T19:56:18.985Z,70.57
2022-11-12T19:58:48.273Z,84.93
2022-11-12T20:01:18.454Z,91.20
2022-11-12T20:03:47.173Z,88.97
2022-11-12T20:06:16.932Z,71.68
2022-11-12T20:08:45.419Z,74.43
2022-11-12T20:11:15.597Z,74.78
2022-11-12T20:13:45.047Z,88.88
2022-11-12T20:16:18.480Z,75.82
2022-11-12T20:18:53.724Z,82.82
2022-11-12T20:21:22.119Z,80.93
2022-11-12T20:23:50.420Z,91.00
2022-11-12T20:26:18.564Z,81.72
2022-11-12T20:28:48.578Z,72.82
2022-11-12T20:31:20.715Z,82.38
2022-11-12T20:33:50.271Z,98.90
2022-11-12T20:36:20.751Z,77.80
2022-11-12T20:38:50.289Z,89.63
2022-11-12T20:41:20.165Z,79.53
2022-11-12T20:43:53.477Z,86.43
2022-11-12T20:46:22.034Z,76.57
2022-11-12T20:48:50.183Z,93.55
2022-11-12T20:51:24.982Z,93.45
2022-11-12T20:53:59.287Z,92.05
2022-11-12T20:56:30.141Z,98.82
2022-11-12T20:59:00.541Z,96.70
2022-11-12T21:01:29.991Z,99.50
2022-11-12T21:03:58.191Z,105.88
2022-11-12T21:06:28.153Z,96.80
2022-11-12T21:08:59.247Z,95.25
2022-11-12T21:11:27.811Z,100.00
2022-11-12T21:13:56.063Z,78.32
2022-11-12T21:16:25.620Z,99.38
2022-11-12T21:18:54.350Z,80.30
2022-11-12T21:21:23.051Z,86.63
2022-11-12T21:23:51.527Z,83.85
2022-11-12T21:26:21.525Z,88.03
2022-11-12T21:28:51.163Z,91.43
2022-11-12T21:31:21.299Z,86.28
2022-11-12T21:33:55.010Z,81.25
2022-11-12T21:36:23.911Z,79.88
2022-11-12T21:38:51.906Z,79.50
2022-11-12T21:41:21.609Z,84.85
2022-11-12T21:43:50.548Z,83.22
2022-11-12T21:46:20.984Z,91.22
2022-11-12T21:48:54.774Z,95.50
2022-11-12T21:51:26.787Z,94.28
2022-11-12T21:53:56.468Z,109.13
2022-11-12T21:56:25.175Z,87.93
2022-11-12T21:58:53.954Z,87.88
2022-11-12T22:01:25.328Z,82.95
2022-11-12T22:03:54.799Z,75.22
2022-11-12T22:06:26.028Z,80.70
2022-11-12T22:08:55.008Z,89.60
2022-11-12T22:11:23.206Z,93.13
2022-11-12T22:13:51.668Z,95.53
2022-11-12T22:16:21.086Z,104.53
2022-11-12T22:18:50.692Z,94.93
2022-11-12T22:21:21.085Z,94.47
2022-11-12T22:23:50.709Z,99.55
2022-11-12T22:26:21.981Z,71.68
2022-11-12T22:28:50.171Z,80.28
2022-11-12T22:31:19.758Z,77.63
2022-11-12T22:33:48.600Z,76.88
2022-11-12T22:36:18.483Z,80.32
2022-11-12T22:38:47.630Z,78.95
2022-11-12T22:41:19.088Z,84.68
2022-11-12T22:43:48.496Z,80.40
2022-11-12T22:46:18.401Z,67.07
2022-11-12T22:48:46.461Z,77.05
2022-11-12T22:51:16.121Z,81.00
2022-11-12T22:53:44.504Z,73.00
2022-11-12T22:56:15.192Z,79.63
2022-11-12T22:58:46.257Z,79.13
2022-11-12T23:01:20.114Z,77.05
2022-11-12T23:03:48.918Z,70.50
2022-11-12T23:06:17.429Z,79.40
2022-11-12T23:08:45.939Z,63.92
2022-11-12T23:11:16.593Z,76.05
2022-11-12T23:13:46.506Z,66.90
2022-11-12T23:16:16.786Z,67.93
2022-11-12T23:18:45.216Z,70.07
2022-11-12T23:21:15.525Z,83.07
2022-11-12T23:23:44.470Z,73.57
2022-11-12T23:26:14.793Z,59.45
2022-11-12T23:28:43.116Z,64.40
2022-11-12T23:31:14.460Z,70.57
2022-11-12T23:33:45.496Z,65.97
2022-11-12T23:36:14.140Z,57.28
2022-11-12T23:38:42.935Z,48.63
2022-11-12T23:41:12.456Z,56.05
2022-11-12T23:43:40.680Z,68.78
2022-11-12T23:46:08.836Z,53.83
2022-11-12T23:48:38.763Z,54.60
2022-11-12T23:51:08.640Z,64.30
2022-11-12T23:53:37.354Z,63.53
2022-11-12T23:56:07.034Z,64.28
2022-11-12T23:58:35.084Z,60.70
